| time (UTC) | temp F | wind direction | speed MPH | gust MPH | rain 1hr in | rain 24hr in | rain mn in | humidity % | barometer mb |
| 20260906211646 | 66 | 299 | 1.0 | 3.0 | 0.00 | 0.42 | 0.22 | 66 | 976.0 |
| 20260906211148 | 66 | 299 | 2.0 | 3.0 | 0.00 | 0.42 | 0.22 | 66 | 976.0 |
| 20260906210645 | 66 | 299 | 0.0 | 4.0 | 0.00 | 0.42 | 0.22 | 65 | 976.1 |
| 20260906210148 | 66 | 299 | 2.0 | 4.0 | 0.00 | 0.42 | 0.22 | 65 | 976.1 |
| 20260906205647 | 66 | 299 | 1.0 | 3.0 | 0.00 | 0.42 | 0.22 | 65 | 976.2 |
| 20260906205156 | 66 | 298 | 1.0 | 5.0 | 0.00 | 0.42 | 0.22 | 65 | 976.3 |
| 20260906205149 | 66 | 299 | 2.0 | 5.0 | 0.00 | 0.42 | 0.22 | 64 | 976.2 |
| 20260906204148 | 66 | 299 | 2.0 | 6.0 | 0.00 | 0.42 | 0.22 | 67 | 976.2 |
| 20260906203645 | 65 | 293 | 3.0 | 6.0 | 0.00 | 0.42 | 0.22 | 68 | 976.3 |
| 20260906203148 | 65 | 251 | 2.0 | 5.0 | 0.00 | 0.42 | 0.22 | 68 | 976.3 |
| 20260906202645 | 65 | 196 | 1.0 | 6.0 | 0.00 | 0.42 | 0.22 | 68 | 976.4 |
| 20260906202146 | 65 | 195 | 2.0 | 6.0 | 0.00 | 0.42 | 0.22 | 69 | 976.5 |
| 20260906201646 | 65 | 248 | 2.0 | 5.0 | 0.00 | 0.42 | 0.22 | 66 | 976.4 |
| 20260906201146 | 65 | 288 | 3.0 | 5.0 | 0.00 | 0.42 | 0.22 | 69 | 976.3 |
| 20260906200645 | 65 | 200 | 2.0 | 4.0 | 0.00 | 0.42 | 0.22 | 67 | 976.3 |
| 20260906200147 | 66 | 199 | 1.0 | 3.0 | 0.00 | 0.42 | 0.22 | 66 | 976.3 |
| 20260906195643 | 66 | 199 | 2.0 | 3.0 | 0.00 | 0.42 | 0.22 | 66 | 976.4 |
| 20260906195154 | 65 | 199 | 2.0 | 3.0 | 0.00 | 0.42 | 0.22 | 67 | 976.5 |
| 20260906195147 | 66 | 199 | 2.0 | 3.0 | 0.00 | 0.42 | 0.22 | 67 | 976.4 |
| 20260906194145 | 66 | 197 | 1.0 | 6.0 | 0.00 | 0.42 | 0.22 | 66 | 976.5 |
| 20260906193643 | 66 | 197 | 2.0 | 6.0 | 0.00 | 0.42 | 0.22 | 65 | 976.6 |
| 20260906193146 | 67 | 199 | 1.0 | 4.0 | 0.00 | 0.42 | 0.22 | 64 | 976.4 |
| 20260906192644 | 67 | 197 | 2.0 | 5.0 | 0.00 | 0.42 | 0.22 | 66 | 976.4 |
| 20260906192150 | 67 | 197 | 3.0 | 5.0 | 0.00 | 0.42 | 0.22 | 67 | 976.6 |
| 20260906191648 | 67 | 226 | 2.0 | 4.0 | 0.00 | 0.42 | 0.22 | 67 | 976.4 |
| 20260906191145 | 66 | 226 | 2.0 | 4.0 | 0.00 | 0.42 | 0.22 | 68 | 976.5 |
| 20260906190653 | 65 | 186 | 3.0 | 6.0 | 0.00 | 0.42 | 0.22 | 69 | 976.5 |
| 20260906190144 | 65 | 180 | 2.0 | 6.0 | 0.00 | 0.42 | 0.22 | 68 | 976.7 |
| 20260906185656 | 65 | 268 | 4.0 | 6.0 | 0.00 | 0.42 | 0.22 | 69 | 976.7 |
| 20260906185644 | 65 | 196 | 2.0 | 6.0 | 0.00 | 0.42 | 0.22 | 69 | 976.9 |
| 20260906184644 | 65 | 210 | 2.0 | 6.0 | 0.00 | 0.42 | 0.22 | 70 | 976.9 |
| 20260906184143 | 65 | 281 | 1.0 | 6.0 | 0.00 | 0.42 | 0.22 | 69 | 977.0 |
| 20260906183643 | 65 | 289 | 2.0 | 5.0 | 0.00 | 0.42 | 0.22 | 71 | 977.0 |
| 20260906183144 | 64 | 241 | 3.0 | 5.0 | 0.00 | 0.42 | 0.22 | 75 | 977.0 |
| 20260906182642 | 63 | 240 | 1.0 | 4.0 | 0.00 | 0.42 | 0.22 | 77 | 977.1 |
| 20260906182143 | 63 | 231 | 2.0 | 5.0 | 0.00 | 0.42 | 0.22 | 75 | 977.1 |
| 20260906181641 | 63 | 200 | 2.0 | 5.0 | 0.00 | 0.42 | 0.22 | 76 | 977.1 |
| 20260906181144 | 63 | 197 | 1.0 | 6.0 | 0.00 | 0.42 | 0.22 | 76 | 977.2 |
| 20260906180641 | 63 | 197 | 3.0 | 6.0 | 0.00 | 0.42 | 0.22 | 77 | 977.2 |
| 20260906180142 | 62 | 193 | 2.0 | 7.0 | 0.00 | 0.42 | 0.22 | 79 | 977.2 |
| 20260906175641 | 62 | 279 | 3.0 | 9.0 | 0.00 | 0.42 | 0.22 | 81 | 977.2 |
| 20260906175144 | 62 | 259 | 5.0 | 9.0 | 0.00 | 0.42 | 0.22 | 87 | 977.3 |
| 20260906174641 | 60 | 269 | 2.0 | 6.0 | 0.00 | 0.42 | 0.22 | 87 | 977.1 |
| 20260906174141 | 60 | 254 | 3.0 | 6.0 | 0.00 | 0.42 | 0.22 | 90 | 977.3 |
| 20260906173641 | 59 | 252 | 2.0 | 5.0 | 0.00 | 0.42 | 0.22 | 90 | 977.3 |
| 20260906173310 | 58 | 252 | 3.0 | 6.0 | 0.00 | 0.42 | 0.22 | 94 | 977.4 |
| 20260906173142 | 59 | 320 | 3.0 | 7.0 | 0.00 | 0.42 | 0.22 | 91 | 977.1 |
| 20260906172647 | 58 | 340 | 5.0 | 7.0 | 0.00 | 0.42 | 0.22 | 93 | 977.3 |
| 20260906172640 | 58 | 300 | 5.0 | 7.0 | 0.00 | 0.42 | 0.22 | 92 | 977.1 |
| 20260906171150 | 56 | 309 | 3.0 | 5.0 | 0.00 | 0.42 | 0.22 | 94 | 977.6 |
| 20260906171141 | 57 | 309 | 2.0 | 5.0 | 0.00 | 0.42 | 0.22 | 94 | 977.5 |
| 20260906170141 | 56 | 309 | 4.0 | 5.0 | 0.00 | 0.42 | 0.22 | 94 | 977.7 |
| 20260906165640 | 56 | 309 | 2.0 | 5.0 | 0.00 | 0.42 | 0.22 | 94 | 977.9 |
| 20260906165142 | 56 | 312 | 3.0 | 5.0 | 0.00 | 0.42 | 0.22 | 95 | 978.0 |
| 20260906164647 | 56 | 313 | 2.0 | 6.0 | 0.00 | 0.43 | 0.22 | 94 | 977.9 |
| 20260906164639 | 56 | 312 | 3.0 | 6.0 | 0.00 | 0.43 | 0.22 | 94 | 978.1 |
| 20260906163639 | 56 | 285 | 2.0 | 4.0 | 0.00 | 0.43 | 0.22 | 95 | 977.8 |
| 20260906163140 | 56 | 285 | 2.0 | 4.0 | 0.00 | 0.43 | 0.22 | 95 | 977.8 |
| 20260906162639 | 55 | 285 | 2.0 | 4.0 | 0.00 | 0.43 | 0.22 | 95 | 978.0 |
| 20260906162140 | 55 | 285 | 2.0 | 5.0 | 0.00 | 0.43 | 0.22 | 95 | 978.0 |
| 20260906161638 | 55 | 282 | 3.0 | 5.0 | 0.01 | 0.43 | 0.22 | 95 | 978.1 |
| 20260906161139 | 55 | 281 | 2.0 | 4.0 | 0.01 | 0.43 | 0.22 | 95 | 978.4 |
| 20260906160646 | 55 | 281 | 1.0 | 2.0 | 0.03 | 0.43 | 0.22 | 95 | 978.3 |
| 20260906160639 | 55 | 281 | 2.0 | 3.0 | 0.02 | 0.43 | 0.22 | 95 | 978.4 |
| 20260906155638 | 54 | 281 | 0.0 | 5.0 | 0.04 | 0.43 | 0.22 | 95 | 978.3 |
| 20260906155147 | 54 | 252 | 2.0 | 5.0 | 0.06 | 0.43 | 0.22 | 95 | 978.2 |
| 20260906155140 | 54 | 281 | 2.0 | 5.0 | 0.05 | 0.43 | 0.22 | 95 | 978.1 |
| 20260906154146 | 53 | 251 | 2.0 | 5.0 | 0.08 | 0.43 | 0.22 | 95 | 978.0 |
| 20260906154139 | 54 | 252 | 2.0 | 5.0 | 0.07 | 0.43 | 0.22 | 95 | 978.3 |
| 20260906153139 | 53 | 251 | 3.0 | 7.0 | 0.09 | 0.43 | 0.22 | 95 | 978.2 |
| 20260906152637 | 53 | 268 | 4.0 | 7.0 | 0.10 | 0.43 | 0.22 | 95 | 977.8 |
| 20260906152138 | 53 | 285 | 5.0 | 7.0 | 0.10 | 0.43 | 0.22 | 95 | 978.0 |
| 20260906151637 | 53 | 14 | 2.0 | 4.0 | 0.10 | 0.42 | 0.21 | 95 | 977.8 |
| 20260906151139 | 53 | 16 | 1.0 | 4.0 | 0.10 | 0.42 | 0.21 | 95 | 977.9 |
| 20260906150637 | 53 | 62 | 2.0 | 4.0 | 0.09 | 0.41 | 0.20 | 95 | 977.6 |
| 20260906150139 | 53 | 80 | 2.0 | 5.0 | 0.09 | 0.40 | 0.19 | 95 | 977.9 |
| 20260906145636 | 53 | 80 | 3.0 | 5.0 | 0.08 | 0.39 | 0.18 | 95 | 977.8 |
| 20260906145145 | 53 | 195 | 2.0 | 3.0 | 0.06 | 0.37 | 0.16 | 95 | 978.4 |
| 20260906145137 | 53 | 66 | 2.0 | 4.0 | 0.07 | 0.38 | 0.17 | 95 | 978.1 |
| 20260906144138 | 53 | 199 | 1.0 | 3.0 | 0.05 | 0.36 | 0.15 | 94 | 978.4 |
| 20260906143638 | 53 | 199 | 2.0 | 3.0 | 0.04 | 0.35 | 0.14 | 94 | 978.5 |
| 20260906143137 | 53 | 199 | 2.0 | 3.0 | 0.03 | 0.34 | 0.13 | 94 | 978.6 |
| 20260906142637 | 53 | 200 | 0.0 | 3.0 | 0.02 | 0.33 | 0.12 | 94 | 979.0 |
| 20260906142137 | 53 | 200 | 1.0 | 3.0 | 0.02 | 0.33 | 0.12 | 94 | 979.0 |
| 20260906141636 | 53 | 200 | 0.0 | 2.0 | 0.01 | 0.32 | 0.11 | 94 | 979.0 |
| 20260906141138 | 53 | 200 | 1.0 | 2.0 | 0.01 | 0.32 | 0.11 | 94 | 978.7 |
| 20260906140636 | 53 | 200 | 1.0 | 2.0 | 0.01 | 0.32 | 0.11 | 94 | 978.5 |
| 20260906140138 | 53 | 200 | 1.0 | 3.0 | 0.00 | 0.31 | 0.10 | 94 | 978.7 |
| 20260906135635 | 53 | 200 | 1.0 | 4.0 | 0.00 | 0.31 | 0.10 | 94 | 978.7 |
| 20260906135136 | 53 | 199 | 2.0 | 5.0 | 0.00 | 0.31 | 0.10 | 94 | 979.0 |
| 20260906134635 | 53 | 200 | 1.0 | 5.0 | 0.00 | 0.31 | 0.10 | 94 | 979.2 |
| 20260906134136 | 53 | 196 | 2.0 | 5.0 | 0.00 | 0.31 | 0.10 | 94 | 979.1 |
| 20260906133635 | 53 | 195 | 2.0 | 9.0 | 0.00 | 0.31 | 0.10 | 94 | 979.1 |
| 20260906133137 | 53 | 193 | 4.0 | 9.0 | 0.00 | 0.31 | 0.10 | 94 | 979.0 |
| 20260906132636 | 53 | 196 | 3.0 | 6.0 | 0.00 | 0.31 | 0.10 | 94 | 979.2 |
| 20260906132135 | 53 | 204 | 2.0 | 7.0 | 0.01 | 0.31 | 0.10 | 94 | 979.0 |
| 20260906131635 | 53 | 196 | 4.0 | 7.0 | 0.01 | 0.31 | 0.10 | 94 | 979.1 |
| 20260906131135 | 53 | 230 | 4.0 | 7.0 | 0.01 | 0.31 | 0.10 | 94 | 979.0 |
| 20260906130635 | 53 | 209 | 4.0 | 6.0 | 0.01 | 0.31 | 0.10 | 94 | 978.8 |
| 20260906130135 | 53 | 231 | 3.0 | 6.0 | 0.01 | 0.31 | 0.10 | 94 | 978.6 |
| 20260906125633 | 53 | 255 | 5.0 | 6.0 | 0.01 | 0.31 | 0.10 | 94 | 978.4 |
| 20260906125135 | 54 | 234 | 3.0 | 5.0 | 0.02 | 0.31 | 0.10 | 94 | 978.1 |
| 20260906124633 | 54 | 285 | 0.0 | 3.0 | 0.02 | 0.31 | 0.10 | 94 | 978.0 |
| 20260906124136 | 54 | 285 | 2.0 | 3.0 | 0.02 | 0.31 | 0.10 | 94 | 978.1 |
| 20260906123633 | 54 | 285 | 2.0 | 4.0 | 0.02 | 0.31 | 0.10 | 94 | 978.2 |
| 20260906123135 | 53 | 285 | 2.0 | 4.0 | 0.03 | 0.31 | 0.10 | 94 | 978.3 |
| 20260906122632 | 53 | 286 | 3.0 | 4.0 | 0.03 | 0.30 | 0.09 | 94 | 978.5 |
| 20260906122134 | 53 | 286 | 2.0 | 4.0 | 0.03 | 0.30 | 0.09 | 94 | 978.6 |
| 20260906121632 | 53 | 286 | 2.0 | 4.0 | 0.03 | 0.30 | 0.09 | 94 | 978.7 |
| 20260906121134 | 53 | 323 | 2.0 | 3.0 | 0.03 | 0.30 | 0.09 | 94 | 978.7 |
| 20260906120633 | 53 | 23 | 2.0 | 3.0 | 0.03 | 0.30 | 0.09 | 94 | 978.6 |
| 20260906120133 | 53 | 25 | 2.0 | 3.0 | 0.03 | 0.30 | 0.09 | 94 | 978.5 |
| 20260906115633 | 53 | 25 | 2.0 | 5.0 | 0.03 | 0.30 | 0.09 | 94 | 978.3 |
| 20260906115133 | 53 | 25 | 2.0 | 5.0 | 0.02 | 0.29 | 0.08 | 94 | 978.2 |
| 20260906114632 | 53 | 56 | 4.0 | 5.0 | 0.02 | 0.29 | 0.08 | 93 | 978.2 |
| 20260906114133 | 53 | 320 | 2.0 | 6.0 | 0.02 | 0.29 | 0.08 | 94 | 978.8 |
| 20260906113632 | 53 | 320 | 5.0 | 6.0 | 0.02 | 0.29 | 0.08 | 94 | 979.2 |
| 20260906113144 | 53 | 42 | 3.0 | 4.0 | 0.00 | 0.27 | 0.06 | 93 | 979.1 |
| 20260906113135 | 53 | 71 | 1.0 | 5.0 | 0.01 | 0.28 | 0.07 | 93 | 979.1 |
| 20260906112134 | 53 | 293 | 2.0 | 2.0 | 0.00 | 0.27 | 0.06 | 93 | 979.4 |
| 20260906111631 | 53 | 293 | 0.0 | 2.0 | 0.00 | 0.27 | 0.06 | 93 | 979.5 |
| 20260906111132 | 53 | 293 | 1.0 | 2.0 | 0.00 | 0.27 | 0.06 | 93 | 979.5 |
| 20260906110631 | 53 | 293 | 1.0 | 3.0 | 0.00 | 0.27 | 0.06 | 93 | 979.4 |
| 20260906110132 | 53 | 293 | 1.0 | 3.0 | 0.00 | 0.27 | 0.06 | 93 | 979.5 |
| 20260906105630 | 53 | 293 | 1.0 | 3.0 | 0.00 | 0.27 | 0.06 | 93 | 979.5 |
| 20260906105132 | 53 | 293 | 2.0 | 3.0 | 0.00 | 0.27 | 0.06 | 93 | 979.7 |
| 20260906104631 | 53 | 295 | 1.0 | 2.0 | 0.00 | 0.27 | 0.06 | 93 | 979.6 |
| 20260906104131 | 53 | 295 | 0.0 | 2.0 | 0.00 | 0.27 | 0.06 | 93 | 979.3 |
| 20260906103631 | 53 | 295 | 1.0 | 2.0 | 0.00 | 0.27 | 0.06 | 93 | 979.4 |
| 20260906103140 | 53 | 293 | 0.0 | 3.0 | 0.00 | 0.27 | 0.06 | 93 | 980.0 |
| 20260906103132 | 53 | 293 | 1.0 | 3.0 | 0.00 | 0.27 | 0.06 | 93 | 979.7 |
| 20260906102131 | 53 | 295 | 1.0 | 3.0 | 0.00 | 0.27 | 0.06 | 93 | 980.1 |
| 20260906101629 | 53 | 295 | 2.0 | 3.0 | 0.00 | 0.27 | 0.06 | 93 | 980.2 |
| 20260906101131 | 53 | 295 | 1.0 | 2.0 | 0.00 | 0.27 | 0.06 | 93 | 980.0 |
| 20260906100629 | 53 | 295 | 1.0 | 3.0 | 0.00 | 0.27 | 0.06 | 93 | 980.0 |
| 20260906100131 | 53 | 295 | 1.0 | 4.0 | 0.00 | 0.27 | 0.06 | 93 | 979.9 |
| 20260906095637 | 53 | 295 | 2.0 | 4.0 | 0.00 | 0.27 | 0.06 | 93 | 980.0 |
| 20260906095629 | 53 | 295 | 1.0 | 4.0 | 0.00 | 0.27 | 0.06 | 93 | 979.9 |
| 20260906094629 | 53 | 295 | 2.0 | 3.0 | 0.00 | 0.27 | 0.06 | 93 | 979.9 |
| 20260906094131 | 53 | 295 | 2.0 | 3.0 | 0.00 | 0.27 | 0.06 | 93 | 980.0 |
| 20260906093628 | 53 | 295 | 1.0 | 2.0 | 0.00 | 0.27 | 0.06 | 93 | 979.8 |
| 20260906093130 | 53 | 295 | 0.0 | 2.0 | 0.00 | 0.27 | 0.06 | 93 | 979.7 |
| 20260906092629 | 53 | 295 | 1.0 | 2.0 | 0.00 | 0.27 | 0.06 | 93 | 979.6 |
| 20260906092129 | 53 | 295 | 1.0 | 3.0 | 0.00 | 0.27 | 0.06 | 93 | 979.9 |
| 20260906091629 | 53 | 295 | 2.0 | 3.0 | 0.00 | 0.27 | 0.06 | 93 | 980.1 |
| 20260906091130 | 53 | 295 | 2.0 | 4.0 | 0.00 | 0.27 | 0.06 | 93 | 980.1 |
| 20260906090758 | 53 | 295 | 2.0 | 3.0 | 0.00 | 0.27 | 0.06 | 93 | 980.1 |
| 20260906090637 | 53 | 295 | 2.0 | 3.0 | 0.00 | 0.27 | 0.06 | 93 | 980.0 |
| 20260906090629 | 53 | 295 | 2.0 | 4.0 | 0.00 | 0.27 | 0.06 | 93 | 980.0 |
| 20260906085136 | 53 | 295 | 0.0 | 0.0 | 0.00 | 0.27 | 0.06 | 93 | 980.1 |
| 20260906085129 | 53 | 295 | 0.0 | 0.0 | 0.00 | 0.27 | 0.06 | 93 | 980.2 |
| 20260906084129 | 53 | 295 | 0.0 | 0.0 | 0.00 | 0.27 | 0.06 | 93 | 980.1 |
| 20260906083628 | 53 | 295 | 0.0 | 0.0 | 0.00 | 0.27 | 0.06 | 93 | 980.4 |
| 20260906083130 | 53 | 295 | 0.0 | 0.0 | 0.00 | 0.27 | 0.06 | 93 | 980.4 |
| 20260906082628 | 53 | 295 | 0.0 | 0.0 | 0.00 | 0.27 | 0.06 | 93 | 980.4 |
| 20260906082129 | 53 | 295 | 0.0 | 0.0 | 0.00 | 0.27 | 0.06 | 93 | 980.4 |
| 20260906081634 | 53 | 295 | 0.0 | 0.0 | 0.00 | 0.27 | 0.06 | 93 | 980.4 |
| 20260906081626 | 53 | 295 | 0.0 | 0.0 | 0.00 | 0.27 | 0.06 | 93 | 980.5 |
| 20260906080627 | 53 | 295 | 0.0 | 1.0 | 0.00 | 0.27 | 0.06 | 93 | 980.5 |
| 20260906080129 | 53 | 295 | 0.0 | 1.0 | 0.00 | 0.27 | 0.06 | 93 | 980.7 |
| 20260906075626 | 52 | 295 | 0.0 | 2.0 | 0.00 | 0.27 | 0.06 | 92 | 980.8 |
| 20260906075127 | 52 | 295 | 1.0 | 2.0 | 0.01 | 0.27 | 0.06 | 92 | 980.8 |
| 20260906074627 | 52 | 295 | 0.0 | 1.0 | 0.02 | 0.27 | 0.06 | 92 | 980.8 |
| 20260906074127 | 53 | 295 | 0.0 | 1.0 | 0.03 | 0.27 | 0.06 | 92 | 980.8 |
| 20260906073633 | 52 | 295 | 0.0 | 2.0 | 0.05 | 0.27 | 0.06 | 92 | 980.7 |
| 20260906073626 | 53 | 295 | 0.0 | 2.0 | 0.04 | 0.27 | 0.06 | 92 | 980.8 |
| 20260906073257 | 52 | 295 | 1.0 | 2.0 | 0.05 | 0.27 | 0.06 | 92 | 980.6 |
| 20260906072128 | 53 | 295 | 0.0 | 1.0 | 0.05 | 0.27 | 0.06 | 92 | 980.7 |
| 20260906071625 | 53 | 295 | 0.0 | 2.0 | 0.06 | 0.27 | 0.06 | 92 | 980.9 |
| 20260906071128 | 53 | 295 | 0.0 | 3.0 | 0.06 | 0.27 | 0.06 | 92 | 980.9 |
| 20260906070633 | 52 | 295 | 0.0 | 2.0 | 0.06 | 0.27 | 0.06 | 92 | 981.1 |
| 20260906070625 | 53 | 295 | 1.0 | 3.0 | 0.06 | 0.27 | 0.06 | 92 | 980.9 |
| 20260906065625 | 52 | 295 | 0.0 | 2.0 | 0.06 | 0.27 | 0.06 | 92 | 981.2 |
| 20260906065126 | 53 | 295 | 1.0 | 2.0 | 0.06 | 0.26 | 0.05 | 91 | 981.1 |
| 20260906064625 | 53 | 295 | 0.0 | 2.0 | 0.06 | 0.25 | 0.04 | 91 | 981.3 |
| 20260906064126 | 53 | 295 | 1.0 | 3.0 | 0.06 | 0.24 | 0.03 | 91 | 981.5 |
| 20260906063625 | 53 | 295 | 0.0 | 3.0 | 0.07 | 0.23 | 0.02 | 91 | 981.6 |
| 20260906063126 | 53 | 295 | 1.0 | 4.0 | 0.08 | 0.22 | 0.01 | 91 | 981.6 |
| 20260906062625 | 53 | 295 | 2.0 | 4.0 | 0.10 | 0.22 | 0.01 | 91 | 981.5 |
| 20260906062125 | 53 | 35 | 2.0 | 3.0 | 0.12 | 0.22 | 0.01 | 91 | 981.5 |
| 20260906061623 | 53 | 49 | 2.0 | 3.0 | 0.13 | 0.21 | 0.00 | 91 | 981.5 |
| 20260906061125 | 52 | 62 | 1.0 | 3.0 | 0.13 | 0.21 | 0.00 | 91 | 981.4 |
| 20260906060623 | 52 | 62 | 1.0 | 5.0 | 0.15 | 0.21 | 0.00 | 90 | 981.3 |
| 20260906060128 | 52 | 65 | 3.0 | 5.0 | 0.20 | 0.21 | 0.00 | 90 | 981.2 |
| 20260906055624 | 53 | 227 | 2.0 | 3.0 | 0.20 | 0.21 | 0.20 | 90 | 981.3 |
| 20260906055126 | 53 | 227 | 2.0 | 3.0 | 0.19 | 0.20 | 0.19 | 89 | 981.4 |
| 20260906054622 | 53 | 227 | 1.0 | 2.0 | 0.18 | 0.19 | 0.18 | 89 | 981.5 |
| 20260906054125 | 53 | 227 | 1.0 | 3.0 | 0.17 | 0.18 | 0.17 | 89 | 981.7 |
| 20260906053622 | 53 | 227 | 2.0 | 4.0 | 0.15 | 0.16 | 0.15 | 89 | 981.8 |
| 20260906053126 | 53 | 227 | 3.0 | 4.0 | 0.13 | 0.14 | 0.13 | 88 | 981.9 |
| 20260906052623 | 53 | 227 | 1.0 | 4.0 | 0.11 | 0.12 | 0.11 | 88 | 981.8 |
| 20260906052124 | 53 | 227 | 2.0 | 5.0 | 0.09 | 0.10 | 0.09 | 88 | 982.1 |
| 20260906051623 | 53 | 258 | 3.0 | 6.0 | 0.07 | 0.08 | 0.08 | 88 | 982.2 |
| 20260906051123 | 54 | 258 | 2.0 | 6.0 | 0.07 | 0.08 | 0.07 | 87 | 981.9 |
| 20260906050623 | 54 | 292 | 4.0 | 5.0 | 0.05 | 0.06 | 0.05 | 87 | 981.8 |
| 20260906050125 | 54 | 333 | 1.0 | 4.0 | 0.00 | 0.01 | 0.00 | 86 | 981.7 |
| 20260906045622 | 54 | 355 | 1.0 | 3.0 | 0.00 | 0.01 | 0.00 | 86 | 981.5 |
| 20260906045122 | 54 | 357 | 1.0 | 4.0 | 0.00 | 0.01 | 0.00 | 86 | 981.5 |
| 20260906044622 | 54 | 355 | 1.0 | 4.0 | 0.00 | 0.01 | 0.00 | 86 | 981.3 |
| 20260906044123 | 53 | 13 | 1.0 | 3.0 | 0.00 | 0.01 | 0.00 | 86 | 981.3 |
| 20260906043621 | 53 | 13 | 0.0 | 2.0 | 0.00 | 0.01 | 0.00 | 86 | 981.2 |
| 20260906043128 | 53 | 13 | 0.0 | 3.0 | 0.00 | 0.01 | 0.00 | 86 | 981.1 |
| 20260906042621 | 53 | 13 | 2.0 | 4.0 | 0.00 | 0.01 | 0.00 | 85 | 981.1 |
| 20260906042132 | 53 | 13 | 1.0 | 3.0 | 0.00 | 0.01 | 0.00 | 85 | 981.2 |
| 20260906042124 | 53 | 13 | 2.0 | 4.0 | 0.00 | 0.01 | 0.00 | 85 | 981.2 |
| 20260906041123 | 53 | 13 | 2.0 | 3.0 | 0.00 | 0.01 | 0.00 | 85 | 981.3 |
| 20260906040622 | 54 | 13 | 0.0 | 3.0 | 0.00 | 0.01 | 0.00 | 85 | 981.1 |
| 20260906040132 | 54 | 13 | 1.0 | 3.0 | 0.00 | 0.01 | 0.00 | 85 | 980.9 |
| 20260906040123 | 54 | 13 | 2.0 | 3.0 | 0.00 | 0.01 | 0.00 | 85 | 980.8 |
| 20260906035123 | 54 | 13 | 1.0 | 3.0 | 0.00 | 0.01 | 0.00 | 85 | 980.8 |
| 20260906034621 | 54 | 13 | 1.0 | 3.0 | 0.00 | 0.01 | 0.00 | 85 | 980.7 |
| 20260906034123 | 54 | 13 | 1.0 | 2.0 | 0.00 | 0.01 | 0.00 | 85 | 980.9 |
| 20260906033620 | 54 | 13 | 0.0 | 2.0 | 0.00 | 0.01 | 0.00 | 85 | 981.2 |
| 20260906033131 | 54 | 13 | 1.0 | 6.0 | 0.00 | 0.01 | 0.00 | 84 | 980.7 |
| 20260906033123 | 54 | 13 | 0.0 | 3.0 | 0.00 | 0.01 | 0.00 | 84 | 980.9 |
| 20260906032123 | 54 | 11 | 2.0 | 6.0 | 0.00 | 0.01 | 0.00 | 83 | 980.4 |
| 20260906031619 | 55 | 0 | 3.0 | 5.0 | 0.00 | 0.01 | 0.00 | 83 | 980.3 |
| 20260906031122 | 55 | 289 | 2.0 | 4.0 | 0.00 | 0.01 | 0.00 | 82 | 980.5 |
| 20260906030619 | 55 | 289 | 2.0 | 4.0 | 0.00 | 0.01 | 0.00 | 82 | 980.5 |
| 20260906030122 | 55 | 271 | 0.0 | 2.0 | 0.00 | 0.01 | 0.00 | 81 | 980.7 |
| 20260906025618 | 55 | 271 | 0.0 | 2.0 | 0.00 | 0.01 | 0.00 | 81 | 980.6 |
| 20260906025121 | 55 | 271 | 0.0 | 2.0 | 0.00 | 0.01 | 0.00 | 81 | 980.6 |
| 20260906024619 | 55 | 271 | 0.0 | 2.0 | 0.00 | 0.01 | 0.00 | 80 | 980.7 |
| 20260906024120 | 56 | 269 | 0.0 | 0.0 | 0.00 | 0.01 | 0.00 | 80 | 980.7 |
| 20260906023618 | 56 | 269 | 0.0 | 3.0 | 0.00 | 0.01 | 0.00 | 79 | 980.6 |
| 20260906023122 | 56 | 269 | 0.0 | 3.0 | 0.00 | 0.01 | 0.00 | 79 | 980.5 |
| 20260906022618 | 56 | 321 | 0.0 | 0.0 | 0.00 | 0.01 | 0.00 | 78 | 980.3 |
| 20260906022121 | 56 | 321 | 0.0 | 0.0 | 0.00 | 0.01 | 0.00 | 78 | 980.1 |
| 20260906021617 | 56 | 321 | 0.0 | 0.0 | 0.00 | 0.01 | 0.00 | 78 | 980.0 |
| 20260906021123 | 57 | 321 | 0.0 | 0.0 | 0.00 | 0.01 | 0.00 | 78 | 979.9 |
| 20260906020625 | 57 | 321 | 0.0 | 3.0 | 0.00 | 0.01 | 0.00 | 77 | 980.1 |
| 20260906020617 | 57 | 321 | 0.0 | 1.0 | 0.00 | 0.01 | 0.00 | 77 | 980.1 |
| 20260906015623 | 57 | 320 | 0.0 | 1.0 | 0.00 | 0.01 | 0.00 | 76 | 980.3 |
| 20260906015617 | 57 | 321 | 0.0 | 3.0 | 0.00 | 0.01 | 0.00 | 77 | 980.1 |
| 20260906014617 | 58 | 319 | 0.0 | 3.0 | 0.00 | 0.01 | 0.00 | 76 | 980.1 |
| 20260906014121 | 58 | 319 | 0.0 | 3.0 | 0.00 | 0.01 | 0.00 | 76 | 980.1 |
| 20260906013616 | 58 | 330 | 0.0 | 10.0 | 0.00 | 0.01 | 0.00 | 76 | 980.1 |
| 20260906013121 | 58 | 321 | 0.0 | 11.0 | 0.00 | 0.01 | 0.00 | 76 | 980.1 |
| 20260906012622 | 58 | 319 | 4.0 | 11.0 | 0.00 | 0.01 | 0.00 | 76 | 980.1 |
| 20260906012616 | 58 | 305 | 5.0 | 11.0 | 0.00 | 0.01 | 0.00 | 76 | 980.1 |
| 20260906011624 | 58 | 353 | 3.0 | 10.0 | 0.00 | 0.01 | 0.00 | 75 | 979.8 |
| 20260906011616 | 58 | 329 | 6.0 | 11.0 | 0.00 | 0.01 | 0.00 | 75 | 980.0 |
| 20260906010616 | 59 | 319 | 2.0 | 10.0 | 0.00 | 0.01 | 0.00 | 75 | 979.9 |
| 20260906010129 | 59 | 350 | 4.0 | 11.0 | 0.00 | 0.01 | 0.00 | 75 | 979.8 |
| 20260906010120 | 59 | 347 | 4.0 | 10.0 | 0.00 | 0.01 | 0.00 | 75 | 979.8 |
| 20260906005121 | 59 | 307 | 0.0 | 11.0 | 0.00 | 0.01 | 0.00 | 75 | 979.9 |
| 20260906004617 | 59 | 329 | 5.0 | 11.0 | 0.00 | 0.01 | 0.00 | 75 | 979.9 |
| 20260906004120 | 59 | 319 | 2.0 | 11.0 | 0.00 | 0.01 | 0.00 | 75 | 979.8 |
| 20260906003616 | 60 | 312 | 3.0 | 11.0 | 0.00 | 0.01 | 0.00 | 73 | 979.8 |
| 20260906003129 | 60 | 305 | 3.0 | 10.0 | 0.00 | 0.01 | 0.00 | 72 | 979.8 |
| 20260906003120 | 60 | 310 | 4.0 | 11.0 | 0.00 | 0.01 | 0.00 | 73 | 979.7 |
| 20260906002120 | 61 | 331 | 0.0 | 10.0 | 0.00 | 0.01 | 0.00 | 72 | 979.9 |
| 20260906001617 | 61 | 264 | 2.0 | 9.0 | 0.00 | 0.01 | 0.00 | 72 | 979.8 |
| 20260906001115 | 61 | 282 | 3.0 | 9.0 | 0.00 | 0.01 | 0.00 | 72 | 979.9 |
| 20260906000614 | 61 | 344 | 0.0 | 9.0 | 0.00 | 0.01 | 0.00 | 72 | 979.8 |
| 20260906000122 | 62 | 323 | 4.0 | 13.0 | 0.00 | 0.01 | 0.00 | 71 | 979.8 |
| 20260906000115 | 62 | 296 | 1.0 | 12.0 | 0.00 | 0.01 | 0.00 | 72 | 979.8 |
| 20260905235740 | 62 | 266 | 2.0 | 13.0 | 0.00 | 0.01 | 0.00 | 71 | 979.8 |
| 20260905234614 | 62 | 285 | 2.0 | 11.0 | 0.00 | 0.01 | 0.00 | 70 | 979.7 |
| 20260905234117 | 62 | 274 | 4.0 | 11.0 | 0.00 | 0.01 | 0.00 | 69 | 979.8 |
| 20260905233616 | 63 | 302 | 1.0 | 11.0 | 0.00 | 0.01 | 0.00 | 69 | 979.8 |
| 20260905233115 | 63 | 302 | 2.0 | 11.0 | 0.00 | 0.01 | 0.00 | 70 | 979.7 |
| 20260905232613 | 63 | 295 | 2.0 | 11.0 | 0.00 | 0.01 | 0.00 | 70 | 979.7 |
| 20260905232114 | 63 | 261 | 4.0 | 11.0 | 0.00 | 0.01 | 0.00 | 70 | 979.7 |
| 20260905231620 | 62 | 298 | 2.0 | 10.0 | 0.00 | 0.01 | 0.00 | 71 | 979.8 |
| 20260905231612 | 63 | 290 | 2.0 | 10.0 | 0.00 | 0.01 | 0.00 | 70 | 979.8 |
| 20260905230613 | 62 | 310 | 2.0 | 10.0 | 0.00 | 0.01 | 0.00 | 72 | 979.8 |
| 20260905230115 | 62 | 303 | 3.0 | 10.0 | 0.00 | 0.01 | 0.00 | 72 | 979.8 |
| 20260905225613 | 62 | 285 | 4.0 | 12.0 | 0.00 | 0.01 | 0.00 | 71 | 979.7 |
| 20260905225113 | 63 | 288 | 5.0 | 12.0 | 0.00 | 0.01 | 0.00 | 70 | 980.0 |
| 20260905224622 | 64 | 282 | 4.0 | 11.0 | 0.00 | 0.01 | 0.00 | 69 | 980.0 |
| 20260905224614 | 63 | 298 | 2.0 | 11.0 | 0.00 | 0.01 | 0.00 | 69 | 980.0 |
| 20260905223620 | 63 | 261 | 4.0 | 10.0 | 0.00 | 0.01 | 0.00 | 70 | 979.9 |
| 20260905223612 | 63 | 300 | 7.0 | 10.0 | 0.00 | 0.01 | 0.00 | 70 | 979.9 |
| 20260905222612 | 63 | 333 | 4.0 | 7.0 | 0.00 | 0.01 | 0.00 | 69 | 979.9 |
| 20260905222114 | 63 | 286 | 3.0 | 5.0 | 0.00 | 0.01 | 0.00 | 69 | 979.9 |
| 20260905221612 | 63 | 265 | 1.0 | 7.0 | 0.00 | 0.01 | 0.00 | 70 | 979.9 |
| 20260905221113 | 62 | 265 | 4.0 | 7.0 | 0.00 | 0.01 | 0.00 | 71 | 980.0 |
| 20260905220611 | 62 | 272 | 3.0 | 6.0 | 0.00 | 0.01 | 0.00 | 73 | 980.0 |
| 20260905220113 | 61 | 292 | 2.0 | 6.0 | 0.00 | 0.01 | 0.00 | 73 | 980.1 |
| 20260905215611 | 61 | 310 | 4.0 | 6.0 | 0.00 | 0.01 | 0.00 | 73 | 980.1 |
| 20260905215112 | 61 | 269 | 4.0 | 9.0 | 0.00 | 0.01 | 0.00 | 73 | 980.2 |
| 20260905214611 | 61 | 310 | 4.0 | 9.0 | 0.00 | 0.01 | 0.00 | 73 | 980.1 |
| 20260905214119 | 61 | 358 | 3.0 | 7.0 | 0.00 | 0.01 | 0.00 | 73 | 980.0 |
| 20260905214112 | 61 | 300 | 4.0 | 6.0 | 0.00 | 0.01 | 0.00 | 72 | 980.2 |
| 20260905213120 | 61 | 247 | 2.0 | 5.0 | 0.00 | 0.01 | 0.00 | 75 | 980.1 |
| 20260905213113 | 61 | 204 | 1.0 | 7.0 | 0.00 | 0.01 | 0.00 | 75 | 980.1 |
| 20260905212741 | 60 | 278 | 2.0 | 4.0 | 0.00 | 0.01 | 0.00 | 76 | 980.1 |
| 20260905212735 | 60 | 245 | 3.0 | 5.0 | 0.00 | 0.01 | 0.00 | 76 | 980.0 |